sensor_id;sensor_type;location;lat;lon;timestamp;temperature;humidity
13794;DHT22;31160;49.500;7.772;2024-02-14T00:00:45;4.10;99.90
13794;DHT22;31160;49.500;7.772;2024-02-14T00:03:11;4.20;99.90
13794;DHT22;31160;49.500;7.772;2024-02-14T00:05:38;4.20;99.90
13794;DHT22;31160;49.500;7.772;2024-02-14T00:08:08;4.30;99.90
13794;DHT22;31160;49.500;7.772;2024-02-14T00:10:34;4.40;99.90
13794;DHT22;31160;49.500;7.772;2024-02-14T00:13:01;4.40;99.90
13794;DHT22;31160;49.500;7.772;2024-02-14T00:15:28;4.50;99.90
13794;DHT22;31160;49.500;7.772;2024-02-14T00:17:55;4.50;99.90
13794;DHT22;31160;49.500;7.772;2024-02-14T00:20:22;4.50;99.90
13794;DHT22;31160;49.500;7.772;2024-02-14T00:22:51;4.60;99.90
13794;DHT22;31160;49.500;7.772;2024-02-14T00:25:18;4.60;99.90
13794;DHT22;31160;49.500;7.772;2024-02-14T00:27:46;4.70;99.90
13794;DHT22;31160;49.500;7.772;2024-02-14T00:30:14;4.70;99.90
13794;DHT22;31160;49.500;7.772;2024-02-14T00:32:41;4.70;99.90
13794;DHT22;31160;49.500;7.772;2024-02-14T00:35:08;4.70;99.90
13794;DHT22;31160;49.500;7.772;2024-02-14T00:37:35;4.70;99.90
13794;DHT22;31160;49.500;7.772;2024-02-14T00:40:02;4.70;99.90
13794;DHT22;31160;49.500;7.772;2024-02-14T00:42:29;4.70;99.90
13794;DHT22;31160;49.500;7.772;2024-02-14T00:44:56;4.60;99.90
13794;DHT22;31160;49.500;7.772;2024-02-14T00:47:23;4.60;99.90
13794;DHT22;31160;49.500;7.772;2024-02-14T00:49:50;4.60;99.90
13794;DHT22;31160;49.500;7.772;2024-02-14T00:52:17;4.70;99.90
13794;DHT22;31160;49.500;7.772;2024-02-14T00:54:43;4.70;99.90
13794;DHT22;31160;49.500;7.772;2024-02-14T00:57:10;4.70;99.90
13794;DHT22;31160;49.500;7.772;2024-02-14T00:59:38;4.60;99.90
13794;DHT22;31160;49.500;7.772;2024-02-14T01:02:05;4.60;99.90
13794;DHT22;31160;49.500;7.772;2024-02-14T01:04:32;4.60;99.90
13794;DHT22;31160;49.500;7.772;2024-02-14T01:06:59;4.60;99.90
13794;DHT22;31160;49.500;7.772;2024-02-14T01:09:25;4.70;99.90
13794;DHT22;31160;49.500;7.772;2024-02-14T01:11:53;4.70;99.90
13794;DHT22;31160;49.500;7.772;2024-02-14T01:14:19;4.80;99.90
13794;DHT22;31160;49.500;7.772;2024-02-14T01:16:48;4.80;99.90
13794;DHT22;31160;49.500;7.772;2024-02-14T01:19:15;4.80;99.90
13794;DHT22;31160;49.500;7.772;2024-02-14T01:21:42;4.90;99.90
13794;DHT22;31160;49.500;7.772;2024-02-14T01:24:08;5.00;99.90
13794;DHT22;31160;49.500;7.772;2024-02-14T01:26:36;5.00;99.90
13794;DHT22;31160;49.500;7.772;2024-02-14T01:29:02;5.00;99.90
13794;DHT22;31160;49.500;7.772;2024-02-14T01:31:29;5.20;99.90
13794;DHT22;31160;49.500;7.772;2024-02-14T01:33:56;5.30;99.90
13794;DHT22;31160;49.500;7.772;2024-02-14T01:36:24;5.40;99.90
13794;DHT22;31160;49.500;7.772;2024-02-14T01:38:51;5.40;99.90
13794;DHT22;31160;49.500;7.772;2024-02-14T01:41:17;5.50;99.90
13794;DHT22;31160;49.500;7.772;2024-02-14T01:43:44;5.50;99.90
13794;DHT22;31160;49.500;7.772;2024-02-14T01:46:11;5.60;99.90
13794;DHT22;31160;49.500;7.772;2024-02-14T01:48:38;5.70;99.90
13794;DHT22;31160;49.500;7.772;2024-02-14T01:51:08;5.80;99.90
13794;DHT22;31160;49.500;7.772;2024-02-14T01:53:37;5.90;99.90
13794;DHT22;31160;49.500;7.772;2024-02-14T01:56:05;5.90;99.90
13794;DHT22;31160;49.500;7.772;2024-02-14T01:58:33;6.00;99.90
13794;DHT22;31160;49.500;7.772;2024-02-14T02:01:00;5.90;99.90
13794;DHT22;31160;49.500;7.772;2024-02-14T02:03:27;6.00;99.90
13794;DHT22;31160;49.500;7.772;2024-02-14T02:05:55;5.90;99.90
13794;DHT22;31160;49.500;7.772;2024-02-14T02:08:22;6.00;99.90
13794;DHT22;31160;49.500;7.772;2024-02-14T02:10:49;6.10;99.90
13794;DHT22;31160;49.500;7.772;2024-02-14T02:13:16;6.20;99.90
13794;DHT22;31160;49.500;7.772;2024-02-14T02:15:43;6.10;99.90
13794;DHT22;31160;49.500;7.772;2024-02-14T02:18:13;6.20;99.90
13794;DHT22;31160;49.500;7.772;2024-02-14T02:20:42;6.30;99.90
13794;DHT22;31160;49.500;7.772;2024-02-14T02:23:11;6.30;99.90
13794;DHT22;31160;49.500;7.772;2024-02-14T02:25:42;6.40;99.90
13794;DHT22;31160;49.500;7.772;2024-02-14T02:28:09;6.40;99.90
13794;DHT22;31160;49.500;7.772;2024-02-14T02:30:36;6.50;99.90
13794;DHT22;31160;49.500;7.772;2024-02-14T02:33:04;6.60;99.90
13794;DHT22;31160;49.500;7.772;2024-02-14T02:35:31;6.60;99.90
13794;DHT22;31160;49.500;7.772;2024-02-14T02:37:58;6.70;99.90
13794;DHT22;31160;49.500;7.772;2024-02-14T02:40:25;6.80;99.90
13794;DHT22;31160;49.500;7.772;2024-02-14T02:42:54;6.70;99.90
13794;DHT22;31160;49.500;7.772;2024-02-14T02:45:21;6.70;99.90
13794;DHT22;31160;49.500;7.772;2024-02-14T02:47:48;6.90;99.90
13794;DHT22;31160;49.500;7.772;2024-02-14T02:50:18;7.00;99.90
13794;DHT22;31160;49.500;7.772;2024-02-14T02:52:46;7.00;99.90
13794;DHT22;31160;49.500;7.772;2024-02-14T02:55:13;7.00;99.90
13794;DHT22;31160;49.500;7.772;2024-02-14T02:57:41;7.00;99.90
13794;DHT22;31160;49.500;7.772;2024-02-14T03:00:08;7.10;99.90
13794;DHT22;31160;49.500;7.772;2024-02-14T03:02:35;7.10;99.90
13794;DHT22;31160;49.500;7.772;2024-02-14T03:05:08;7.20;99.90
13794;DHT22;31160;49.500;7.772;2024-02-14T03:07:36;7.20;99.90
13794;DHT22;31160;49.500;7.772;2024-02-14T03:10:04;7.20;99.90
13794;DHT22;31160;49.500;7.772;2024-02-14T03:12:31;7.30;99.90
13794;DHT22;31160;49.500;7.772;2024-02-14T03:14:59;7.30;99.90
13794;DHT22;31160;49.500;7.772;2024-02-14T03:17:26;7.30;99.90
13794;DHT22;31160;49.500;7.772;2024-02-14T03:19:55;7.30;99.90
13794;DHT22;31160;49.500;7.772;2024-02-14T03:22:23;7.20;99.90
13794;DHT22;31160;49.500;7.772;2024-02-14T03:24:50;7.30;99.90
13794;DHT22;31160;49.500;7.772;2024-02-14T03:27:16;7.40;99.90
13794;DHT22;31160;49.500;7.772;2024-02-14T03:29:44;7.40;99.90
13794;DHT22;31160;49.500;7.772;2024-02-14T03:32:11;7.40;99.90
13794;DHT22;31160;49.500;7.772;2024-02-14T03:34:38;7.30;99.90
13794;DHT22;31160;49.500;7.772;2024-02-14T03:37:05;7.40;99.90
13794;DHT22;31160;49.500;7.772;2024-02-14T03:39:33;7.50;99.90
13794;DHT22;31160;49.500;7.772;2024-02-14T03:42:00;7.50;99.90
13794;DHT22;31160;49.500;7.772;2024-02-14T03:44:30;7.60;99.90
13794;DHT22;31160;49.500;7.772;2024-02-14T03:46:57;7.60;99.90
13794;DHT22;31160;49.500;7.772;2024-02-14T03:49:24;7.50;99.90
13794;DHT22;31160;49.500;7.772;2024-02-14T03:51:52;7.40;99.90
13794;DHT22;31160;49.500;7.772;2024-02-14T03:54:22;7.40;99.90
13794;DHT22;31160;49.500;7.772;2024-02-14T03:56:50;7.50;99.90
13794;DHT22;31160;49.500;7.772;2024-02-14T03:59:18;7.50;99.90
13794;DHT22;31160;49.500;7.772;2024-02-14T04:01:51;7.50;99.90
13794;DHT22;31160;49.500;7.772;2024-02-14T04:04:19;7.50;99.90
13794;DHT22;31160;49.500;7.772;2024-02-14T04:06:46;7.40;99.90
13794;DHT22;31160;49.500;7.772;2024-02-14T04:09:14;7.40;99.90
13794;DHT22;31160;49.500;7.772;2024-02-14T04:11:41;7.50;99.90
13794;DHT22;31160;49.500;7.772;2024-02-14T04:14:08;7.30;99.90
13794;DHT22;31160;49.500;7.772;2024-02-14T04:16:34;7.50;99.90
13794;DHT22;31160;49.500;7.772;2024-02-14T04:19:03;7.40;99.90
13794;DHT22;31160;49.500;7.772;2024-02-14T04:21:31;7.40;99.90
13794;DHT22;31160;49.500;7.772;2024-02-14T04:23:58;7.50;99.90
13794;DHT22;31160;49.500;7.772;2024-02-14T04:26:25;7.40;99.90
13794;DHT22;31160;49.500;7.772;2024-02-14T04:28:51;7.40;99.90
13794;DHT22;31160;49.500;7.772;2024-02-14T04:31:18;7.50;99.90
13794;DHT22;31160;49.500;7.772;2024-02-14T04:33:45;7.40;99.90
13794;DHT22;31160;49.500;7.772;2024-02-14T04:36:19;7.50;99.90
13794;DHT22;31160;49.500;7.772;2024-02-14T04:38:47;7.50;99.90
13794;DHT22;31160;49.500;7.772;2024-02-14T04:41:14;7.60;99.90
13794;DHT22;31160;49.500;7.772;2024-02-14T04:43:41;7.60;99.90
13794;DHT22;31160;49.500;7.772;2024-02-14T04:46:08;7.70;99.90
13794;DHT22;31160;49.500;7.772;2024-02-14T04:48:36;7.70;99.90
13794;DHT22;31160;49.500;7.772;2024-02-14T04:51:04;7.60;99.90
13794;DHT22;31160;49.500;7.772;2024-02-14T04:53:31;7.60;99.90
13794;DHT22;31160;49.500;7.772;2024-02-14T04:55:58;7.70;99.90
13794;DHT22;31160;49.500;7.772;2024-02-14T04:58:25;7.60;99.90
13794;DHT22;31160;49.500;7.772;2024-02-14T05:00:53;7.60;99.90
13794;DHT22;31160;49.500;7.772;2024-02-14T05:03:21;7.60;99.90
13794;DHT22;31160;49.500;7.772;2024-02-14T05:05:50;7.70;99.90
13794;DHT22;31160;49.500;7.772;2024-02-14T05:08:17;7.70;99.90
13794;DHT22;31160;49.500;7.772;2024-02-14T05:10:44;7.70;99.90
13794;DHT22;31160;49.500;7.772;2024-02-14T05:13:12;7.60;99.90
13794;DHT22;31160;49.500;7.772;2024-02-14T05:15:39;7.60;99.90
13794;DHT22;31160;49.500;7.772;2024-02-14T05:18:06;7.50;99.90
13794;DHT22;31160;49.500;7.772;2024-02-14T05:20:33;7.60;99.90
13794;DHT22;31160;49.500;7.772;2024-02-14T05:23:00;7.70;99.90
13794;DHT22;31160;49.500;7.772;2024-02-14T05:25:27;7.60;99.90
13794;DHT22;31160;49.500;7.772;2024-02-14T05:27:56;7.50;99.90
13794;DHT22;31160;49.500;7.772;2024-02-14T05:30:22;7.50;99.90
13794;DHT22;31160;49.500;7.772;2024-02-14T05:32:49;7.50;99.90
13794;DHT22;31160;49.500;7.772;2024-02-14T05:35:19;7.40;99.90
13794;DHT22;31160;49.500;7.772;2024-02-14T05:37:46;7.40;99.90
13794;DHT22;31160;49.500;7.772;2024-02-14T05:40:16;7.50;99.90
13794;DHT22;31160;49.500;7.772;2024-02-14T05:42:42;7.30;99.90
13794;DHT22;31160;49.500;7.772;2024-02-14T05:45:13;7.20;99.90
13794;DHT22;31160;49.500;7.772;2024-02-14T05:47:40;7.00;99.90
13794;DHT22;31160;49.500;7.772;2024-02-14T05:50:07;7.10;99.90
13794;DHT22;31160;49.500;7.772;2024-02-14T05:52:35;7.20;99.90
13794;DHT22;31160;49.500;7.772;2024-02-14T05:55:02;7.10;99.90
13794;DHT22;31160;49.500;7.772;2024-02-14T05:57:30;7.40;99.90
13794;DHT22;31160;49.500;7.772;2024-02-14T05:59:57;7.30;99.90
13794;DHT22;31160;49.500;7.772;2024-02-14T06:02:24;7.30;99.90
13794;DHT22;31160;49.500;7.772;2024-02-14T06:04:50;7.30;99.90
13794;DHT22;31160;49.500;7.772;2024-02-14T06:07:17;7.20;99.90
13794;DHT22;31160;49.500;7.772;2024-02-14T06:09:44;7.20;99.90
13794;DHT22;31160;49.500;7.772;2024-02-14T06:12:12;7.20;99.90
13794;DHT22;31160;49.500;7.772;2024-02-14T06:14:39;7.30;99.90
13794;DHT22;31160;49.500;7.772;2024-02-14T06:17:06;7.40;99.90
13794;DHT22;31160;49.500;7.772;2024-02-14T06:19:33;7.40;99.90
13794;DHT22;31160;49.500;7.772;2024-02-14T06:22:06;7.40;99.90
13794;DHT22;31160;49.500;7.772;2024-02-14T06:24:33;7.40;99.90
13794;DHT22;31160;49.500;7.772;2024-02-14T06:26:59;7.50;99.90
13794;DHT22;31160;49.500;7.772;2024-02-14T06:29:26;7.40;99.90
13794;DHT22;31160;49.500;7.772;2024-02-14T06:31:53;7.50;99.90
13794;DHT22;31160;49.500;7.772;2024-02-14T06:34:20;7.50;99.90
13794;DHT22;31160;49.500;7.772;2024-02-14T06:36:47;7.50;99.90
13794;DHT22;31160;49.500;7.772;2024-02-14T06:39:14;7.50;99.90
13794;DHT22;31160;49.500;7.772;2024-02-14T06:41:41;7.50;99.90
13794;DHT22;31160;49.500;7.772;2024-02-14T06:44:07;7.50;99.90
13794;DHT22;31160;49.500;7.772;2024-02-14T06:46:34;7.60;99.90
13794;DHT22;31160;49.500;7.772;2024-02-14T06:49:04;7.60;99.90
13794;DHT22;31160;49.500;7.772;2024-02-14T06:51:31;7.70;99.90
13794;DHT22;31160;49.500;7.772;2024-02-14T06:53:58;7.80;99.90
13794;DHT22;31160;49.500;7.772;2024-02-14T06:56:24;7.70;99.90
13794;DHT22;31160;49.500;7.772;2024-02-14T06:58:51;7.80;99.90
13794;DHT22;31160;49.500;7.772;2024-02-14T07:01:20;7.70;99.90
13794;DHT22;31160;49.500;7.772;2024-02-14T07:03:52;7.60;99.90
13794;DHT22;31160;49.500;7.772;2024-02-14T07:06:20;7.60;99.90
13794;DHT22;31160;49.500;7.772;2024-02-14T07:08:47;7.70;99.90
13794;DHT22;31160;49.500;7.772;2024-02-14T07:11:16;7.70;99.90
13794;DHT22;31160;49.500;7.772;2024-02-14T07:13:43;7.80;99.90
13794;DHT22;31160;49.500;7.772;2024-02-14T07:16:10;7.60;99.90
13794;DHT22;31160;49.500;7.772;2024-02-14T07:18:37;7.80;99.90
13794;DHT22;31160;49.500;7.772;2024-02-14T07:21:04;7.70;99.90
13794;DHT22;31160;49.500;7.772;2024-02-14T07:23:33;7.70;99.90
13794;DHT22;31160;49.500;7.772;2024-02-14T07:26:00;7.70;99.90
13794;DHT22;31160;49.500;7.772;2024-02-14T07:28:28;7.90;99.90
13794;DHT22;31160;49.500;7.772;2024-02-14T07:30:54;7.90;99.90
13794;DHT22;31160;49.500;7.772;2024-02-14T07:33:21;8.00;99.90
13794;DHT22;31160;49.500;7.772;2024-02-14T07:35:48;7.90;99.90
13794;DHT22;31160;49.500;7.772;2024-02-14T07:38:15;7.80;99.90
13794;DHT22;31160;49.500;7.772;2024-02-14T07:40:43;7.90;99.90
13794;DHT22;31160;49.500;7.772;2024-02-14T07:43:09;8.00;99.90
13794;DHT22;31160;49.500;7.772;2024-02-14T07:45:37;8.00;99.90
13794;DHT22;31160;49.500;7.772;2024-02-14T07:48:04;8.10;99.90
13794;DHT22;31160;49.500;7.772;2024-02-14T07:50:31;8.10;99.90
13794;DHT22;31160;49.500;7.772;2024-02-14T07:52:58;8.20;99.90
13794;DHT22;31160;49.500;7.772;2024-02-14T07:55:25;8.10;99.90
13794;DHT22;31160;49.500;7.772;2024-02-14T07:57:52;7.90;99.90
13794;DHT22;31160;49.500;7.772;2024-02-14T08:00:19;8.00;99.90
13794;DHT22;31160;49.500;7.772;2024-02-14T08:02:49;8.10;99.90
13794;DHT22;31160;49.500;7.772;2024-02-14T08:05:17;8.20;99.90
13794;DHT22;31160;49.500;7.772;2024-02-14T08:07:46;8.20;99.90
13794;DHT22;31160;49.500;7.772;2024-02-14T08:10:13;8.20;99.90
13794;DHT22;31160;49.500;7.772;2024-02-14T08:12:40;8.10;99.90
13794;DHT22;31160;49.500;7.772;2024-02-14T08:15:07;8.00;99.90
13794;DHT22;31160;49.500;7.772;2024-02-14T08:17:34;7.90;99.90
13794;DHT22;31160;49.500;7.772;2024-02-14T08:20:03;7.90;99.90
13794;DHT22;31160;49.500;7.772;2024-02-14T08:22:30;7.80;99.90
13794;DHT22;31160;49.500;7.772;2024-02-14T08:24:58;7.90;99.90
13794;DHT22;31160;49.500;7.772;2024-02-14T08:27:25;7.90;99.90
13794;DHT22;31160;49.500;7.772;2024-02-14T08:29:54;8.10;99.90
13794;DHT22;31160;49.500;7.772;2024-02-14T08:32:21;8.10;99.90
13794;DHT22;31160;49.500;7.772;2024-02-14T08:34:50;8.10;99.90
13794;DHT22;31160;49.500;7.772;2024-02-14T08:37:16;8.20;99.90
13794;DHT22;31160;49.500;7.772;2024-02-14T08:39:43;8.30;99.90
13794;DHT22;31160;49.500;7.772;2024-02-14T08:42:10;8.40;99.90
13794;DHT22;31160;49.500;7.772;2024-02-14T08:44:37;8.50;99.90
13794;DHT22;31160;49.500;7.772;2024-02-14T08:47:04;8.50;99.90
13794;DHT22;31160;49.500;7.772;2024-02-14T08:49:33;8.60;99.90
13794;DHT22;31160;49.500;7.772;2024-02-14T08:52:00;8.50;99.90
13794;DHT22;31160;49.500;7.772;2024-02-14T08:54:27;8.60;99.90
13794;DHT22;31160;49.500;7.772;2024-02-14T08:56:54;8.60;99.90
13794;DHT22;31160;49.500;7.772;2024-02-14T08:59:25;8.50;99.90
13794;DHT22;31160;49.500;7.772;2024-02-14T09:01:51;8.60;99.90
13794;DHT22;31160;49.500;7.772;2024-02-14T09:04:18;8.70;99.90
13794;DHT22;31160;49.500;7.772;2024-02-14T09:06:45;8.50;99.90
13794;DHT22;31160;49.500;7.772;2024-02-14T09:09:12;8.50;99.90
13794;DHT22;31160;49.500;7.772;2024-02-14T09:11:42;8.70;99.90
13794;DHT22;31160;49.500;7.772;2024-02-14T09:14:09;8.70;99.90
13794;DHT22;31160;49.500;7.772;2024-02-14T09:16:37;8.60;99.90
13794;DHT22;31160;49.500;7.772;2024-02-14T09:19:04;8.40;99.90
13794;DHT22;31160;49.500;7.772;2024-02-14T09:21:34;8.60;99.90
13794;DHT22;31160;49.500;7.772;2024-02-14T09:24:02;8.70;99.90
13794;DHT22;31160;49.500;7.772;2024-02-14T09:26:29;8.80;99.90
13794;DHT22;31160;49.500;7.772;2024-02-14T09:28:57;8.90;99.90
13794;DHT22;31160;49.500;7.772;2024-02-14T09:31:24;8.90;99.90
13794;DHT22;31160;49.500;7.772;2024-02-14T09:33:50;9.00;99.90
13794;DHT22;31160;49.500;7.772;2024-02-14T09:36:17;9.00;99.90
13794;DHT22;31160;49.500;7.772;2024-02-14T09:38:46;8.90;99.90
13794;DHT22;31160;49.500;7.772;2024-02-14T09:41:37;8.90;99.90
13794;DHT22;31160;49.500;7.772;2024-02-14T09:44:04;8.90;99.90
13794;DHT22;31160;49.500;7.772;2024-02-14T09:46:31;8.80;99.90
13794;DHT22;31160;49.500;7.772;2024-02-14T09:48:59;8.80;99.90
13794;DHT22;31160;49.500;7.772;2024-02-14T09:51:29;8.80;99.90
13794;DHT22;31160;49.500;7.772;2024-02-14T09:53:59;8.90;99.90
13794;DHT22;31160;49.500;7.772;2024-02-14T09:56:28;9.00;99.90
13794;DHT22;31160;49.500;7.772;2024-02-14T09:58:55;9.00;99.90
13794;DHT22;31160;49.500;7.772;2024-02-14T10:01:24;9.10;99.90
13794;DHT22;31160;49.500;7.772;2024-02-14T10:03:51;9.20;99.90
13794;DHT22;31160;49.500;7.772;2024-02-14T10:06:18;9.20;99.90
13794;DHT22;31160;49.500;7.772;2024-02-14T10:08:48;9.10;99.90
13794;DHT22;31160;49.500;7.772;2024-02-14T10:11:33;9.20;99.90
13794;DHT22;31160;49.500;7.772;2024-02-14T10:14:00;9.10;99.90
13794;DHT22;31160;49.500;7.772;2024-02-14T10:16:31;9.20;99.90
13794;DHT22;31160;49.500;7.772;2024-02-14T10:18:57;9.30;99.90
13794;DHT22;31160;49.500;7.772;2024-02-14T10:21:25;9.20;99.90
13794;DHT22;31160;49.500;7.772;2024-02-14T10:23:52;9.10;99.90
13794;DHT22;31160;49.500;7.772;2024-02-14T10:26:20;9.10;99.90
13794;DHT22;31160;49.500;7.772;2024-02-14T10:28:47;9.10;99.90
13794;DHT22;31160;49.500;7.772;2024-02-14T10:31:16;9.20;99.90
13794;DHT22;31160;49.500;7.772;2024-02-14T10:33:43;9.10;99.90
13794;DHT22;31160;49.500;7.772;2024-02-14T10:36:12;9.20;99.90
13794;DHT22;31160;49.500;7.772;2024-02-14T10:38:40;9.30;99.90
13794;DHT22;31160;49.500;7.772;2024-02-14T10:41:07;9.40;99.90
13794;DHT22;31160;49.500;7.772;2024-02-14T10:43:37;9.40;99.90
13794;DHT22;31160;49.500;7.772;2024-02-14T10:46:09;9.40;99.90
13794;DHT22;31160;49.500;7.772;2024-02-14T10:48:39;9.50;99.90
13794;DHT22;31160;49.500;7.772;2024-02-14T10:51:08;9.60;99.90
13794;DHT22;31160;49.500;7.772;2024-02-14T10:53:39;9.60;99.90
13794;DHT22;31160;49.500;7.772;2024-02-14T10:56:17;9.70;99.90
13794;DHT22;31160;49.500;7.772;2024-02-14T10:58:47;9.70;99.90
13794;DHT22;31160;49.500;7.772;2024-02-14T11:01:14;9.70;99.90
13794;DHT22;31160;49.500;7.772;2024-02-14T11:03:43;9.70;99.90
13794;DHT22;31160;49.500;7.772;2024-02-14T11:06:15;9.70;99.90
13794;DHT22;31160;49.500;7.772;2024-02-14T11:09:02;9.80;99.90
13794;DHT22;31160;49.500;7.772;2024-02-14T11:11:39;9.90;99.90
13794;DHT22;31160;49.500;7.772;2024-02-14T11:14:07;9.70;99.90
13794;DHT22;31160;49.500;7.772;2024-02-14T11:16:33;9.80;99.90
13794;DHT22;31160;49.500;7.772;2024-02-14T11:19:06;9.90;99.90
13794;DHT22;31160;49.500;7.772;2024-02-14T11:21:36;9.90;99.90
13794;DHT22;31160;49.500;7.772;2024-02-14T11:24:05;10.00;99.90
13794;DHT22;31160;49.500;7.772;2024-02-14T11:29:15;10.20;99.90
13794;DHT22;31160;49.500;7.772;2024-02-14T11:31:48;10.30;99.90
13794;DHT22;31160;49.500;7.772;2024-02-14T11:34:16;10.10;99.90
13794;DHT22;31160;49.500;7.772;2024-02-14T11:36:44;10.20;99.90
13794;DHT22;31160;49.500;7.772;2024-02-14T11:39:11;10.20;99.90
13794;DHT22;31160;49.500;7.772;2024-02-14T11:41:38;10.30;99.90
13794;DHT22;31160;49.500;7.772;2024-02-14T11:44:05;10.30;99.90
13794;DHT22;31160;49.500;7.772;2024-02-14T11:46:33;10.50;99.90
13794;DHT22;31160;49.500;7.772;2024-02-14T11:49:05;10.40;99.90
13794;DHT22;31160;49.500;7.772;2024-02-14T11:51:33;10.50;99.90
13794;DHT22;31160;49.500;7.772;2024-02-14T11:54:03;10.60;99.90
13794;DHT22;31160;49.500;7.772;2024-02-14T11:56:36;10.70;99.90
13794;DHT22;31160;49.500;7.772;2024-02-14T11:59:04;10.70;99.90
13794;DHT22;31160;49.500;7.772;2024-02-14T12:01:36;10.70;99.90
13794;DHT22;31160;49.500;7.772;2024-02-14T12:04:07;10.50;99.90
13794;DHT22;31160;49.500;7.772;2024-02-14T12:06:40;10.50;99.90
13794;DHT22;31160;49.500;7.772;2024-02-14T12:09:09;10.60;99.90
13794;DHT22;31160;49.500;7.772;2024-02-14T12:11:36;10.60;99.90
13794;DHT22;31160;49.500;7.772;2024-02-14T12:14:09;10.70;99.90
13794;DHT22;31160;49.500;7.772;2024-02-14T12:16:37;10.70;99.90
13794;DHT22;31160;49.500;7.772;2024-02-14T12:19:08;10.80;99.90
13794;DHT22;31160;49.500;7.772;2024-02-14T12:21:37;10.90;99.90
13794;DHT22;31160;49.500;7.772;2024-02-14T12:24:07;11.00;99.90
13794;DHT22;31160;49.500;7.772;2024-02-14T12:26:35;11.00;99.90
13794;DHT22;31160;49.500;7.772;2024-02-14T12:29:07;10.90;99.90
13794;DHT22;31160;49.500;7.772;2024-02-14T12:31:35;10.80;99.90
13794;DHT22;31160;49.500;7.772;2024-02-14T12:34:04;10.70;99.90
13794;DHT22;31160;49.500;7.772;2024-02-14T12:36:34;10.60;99.90
13794;DHT22;31160;49.500;7.772;2024-02-14T12:39:02;10.60;99.90
13794;DHT22;31160;49.500;7.772;2024-02-14T12:41:32;10.70;99.90
13794;DHT22;31160;49.500;7.772;2024-02-14T12:44:02;10.50;99.90
13794;DHT22;31160;49.500;7.772;2024-02-14T12:46:28;10.60;99.90
13794;DHT22;31160;49.500;7.772;2024-02-14T12:48:56;10.60;99.90
13794;DHT22;31160;49.500;7.772;2024-02-14T12:51:23;10.70;99.90
13794;DHT22;31160;49.500;7.772;2024-02-14T12:53:55;10.60;99.90
13794;DHT22;31160;49.500;7.772;2024-02-14T12:56:21;10.60;99.90
13794;DHT22;31160;49.500;7.772;2024-02-14T12:58:48;10.80;99.90
13794;DHT22;31160;49.500;7.772;2024-02-14T13:01:15;11.00;99.90
13794;DHT22;31160;49.500;7.772;2024-02-14T13:03:44;10.90;99.90
13794;DHT22;31160;49.500;7.772;2024-02-14T13:06:12;10.90;99.90
13794;DHT22;31160;49.500;7.772;2024-02-14T13:08:40;11.00;99.90
13794;DHT22;31160;49.500;7.772;2024-02-14T13:11:08;11.00;99.90
13794;DHT22;31160;49.500;7.772;2024-02-14T13:13:35;11.00;99.90
13794;DHT22;31160;49.500;7.772;2024-02-14T13:16:03;11.00;99.90
13794;DHT22;31160;49.500;7.772;2024-02-14T13:18:33;11.20;99.90
13794;DHT22;31160;49.500;7.772;2024-02-14T13:21:00;11.10;99.90
13794;DHT22;31160;49.500;7.772;2024-02-14T13:23:28;11.10;99.90
13794;DHT22;31160;49.500;7.772;2024-02-14T13:25:55;11.10;99.90
13794;DHT22;31160;49.500;7.772;2024-02-14T13:28:22;10.90;99.90
13794;DHT22;31160;49.500;7.772;2024-02-14T13:30:48;11.00;99.90
13794;DHT22;31160;49.500;7.772;2024-02-14T13:33:15;11.10;99.90
13794;DHT22;31160;49.500;7.772;2024-02-14T13:35:42;11.10;99.90
13794;DHT22;31160;49.500;7.772;2024-02-14T13:38:10;11.00;99.90
13794;DHT22;31160;49.500;7.772;2024-02-14T13:40:37;11.00;99.90
13794;DHT22;31160;49.500;7.772;2024-02-14T13:43:04;11.00;99.90
13794;DHT22;31160;49.500;7.772;2024-02-14T13:45:41;11.00;99.90
13794;DHT22;31160;49.500;7.772;2024-02-14T13:48:09;11.10;99.90
13794;DHT22;31160;49.500;7.772;2024-02-14T13:50:37;11.10;99.90
13794;DHT22;31160;49.500;7.772;2024-02-14T13:53:06;11.00;99.90
13794;DHT22;31160;49.500;7.772;2024-02-14T13:55:32;11.00;99.90
13794;DHT22;31160;49.500;7.772;2024-02-14T13:57:59;11.00;99.90
13794;DHT22;31160;49.500;7.772;2024-02-14T14:00:26;11.00;99.90
13794;DHT22;31160;49.500;7.772;2024-02-14T14:02:54;10.80;99.90
13794;DHT22;31160;49.500;7.772;2024-02-14T14:05:22;10.80;99.90
13794;DHT22;31160;49.500;7.772;2024-02-14T14:07:49;10.80;99.90
13794;DHT22;31160;49.500;7.772;2024-02-14T14:10:25;10.70;99.90
13794;DHT22;31160;49.500;7.772;2024-02-14T14:12:54;10.60;99.90
13794;DHT22;31160;49.500;7.772;2024-02-14T14:15:21;10.60;99.90
13794;DHT22;31160;49.500;7.772;2024-02-14T14:17:52;10.80;99.90
13794;DHT22;31160;49.500;7.772;2024-02-14T14:20:19;10.80;99.90
13794;DHT22;31160;49.500;7.772;2024-02-14T14:22:47;10.60;99.90
13794;DHT22;31160;49.500;7.772;2024-02-14T14:25:14;10.70;99.90
13794;DHT22;31160;49.500;7.772;2024-02-14T14:27:41;10.70;99.90
13794;DHT22;31160;49.500;7.772;2024-02-14T14:30:10;10.70;99.90
13794;DHT22;31160;49.500;7.772;2024-02-14T14:32:37;10.80;99.90
13794;DHT22;31160;49.500;7.772;2024-02-14T14:35:04;10.80;99.90
13794;DHT22;31160;49.500;7.772;2024-02-14T14:37:31;10.80;99.90
13794;DHT22;31160;49.500;7.772;2024-02-14T14:39:57;10.80;99.90
13794;DHT22;31160;49.500;7.772;2024-02-14T14:42:27;10.80;99.90
13794;DHT22;31160;49.500;7.772;2024-02-14T14:44:55;10.90;99.90
13794;DHT22;31160;49.500;7.772;2024-02-14T14:47:21;10.90;99.90
13794;DHT22;31160;49.500;7.772;2024-02-14T14:49:49;10.80;99.90
13794;DHT22;31160;49.500;7.772;2024-02-14T14:52:16;10.80;99.90
13794;DHT22;31160;49.500;7.772;2024-02-14T14:54:43;11.00;99.90
13794;DHT22;31160;49.500;7.772;2024-02-14T15:01:21;11.20;99.90
13794;DHT22;31160;49.500;7.772;2024-02-14T15:03:48;11.20;99.90
13794;DHT22;31160;49.500;7.772;2024-02-14T15:06:15;11.10;99.90
13794;DHT22;31160;49.500;7.772;2024-02-14T15:08:42;11.00;99.90
13794;DHT22;31160;49.500;7.772;2024-02-14T15:11:10;10.90;99.90
13794;DHT22;31160;49.500;7.772;2024-02-14T15:13:41;11.00;99.90
13794;DHT22;31160;49.500;7.772;2024-02-14T15:16:08;11.00;99.90
13794;DHT22;31160;49.500;7.772;2024-02-14T15:18:35;10.90;99.90
13794;DHT22;31160;49.500;7.772;2024-02-14T15:21:02;11.00;99.90
13794;DHT22;31160;49.500;7.772;2024-02-14T15:23:29;11.10;99.90
13794;DHT22;31160;49.500;7.772;2024-02-14T15:25:56;11.00;99.90
13794;DHT22;31160;49.500;7.772;2024-02-14T15:28:30;11.10;99.90
13794;DHT22;31160;49.500;7.772;2024-02-14T15:30:57;11.10;99.90
13794;DHT22;31160;49.500;7.772;2024-02-14T15:33:42;11.10;99.90
13794;DHT22;31160;49.500;7.772;2024-02-14T15:36:10;11.10;99.90
13794;DHT22;31160;49.500;7.772;2024-02-14T15:38:42;11.10;99.90
13794;DHT22;31160;49.500;7.772;2024-02-14T15:41:09;11.10;99.90
13794;DHT22;31160;49.500;7.772;2024-02-14T15:43:36;11.10;99.90
13794;DHT22;31160;49.500;7.772;2024-02-14T15:46:03;10.90;99.90
13794;DHT22;31160;49.500;7.772;2024-02-14T15:48:29;10.80;99.90
13794;DHT22;31160;49.500;7.772;2024-02-14T15:50:56;10.80;99.90
13794;DHT22;31160;49.500;7.772;2024-02-14T15:53:25;10.90;99.90